Prescott, Arkansas
Current Conditions -  °F | °C
As of 5:56 AM on Sunday 21 Dec 2014 (Local Time) from KADF Reporting Station
Haze Haze  
Wind Chill: 32°   Ceiling: Unl
Heat Index: 32°   Visibility: 5mi
Dew Point: 32°   Wind: 0mph
Humidity: 100%   Direction: NA
Pressure: 30.2"   Gusts: NA
Location:  33.8°N, 93.38°W
Report Text: KADF 211156Z AUTO 00000KT 5SM BR CLR 00/00 A3020 RMK AO2 55007 T00000000 10022 21005 SLP244
Loading
Personal Weather Stations






























Interactive Weather Map New forecast layout! Learn more

10-Day Weather Forecast

Advertisements
Track Severe Weather on mobile